AirNav   Bose Proflight Series 2 Wireless Aviation Headset
 
 254 users online  

5TA5 Creasy Airport
Santa Fe, Texas, USA

GOING TO SANTA FE?


FAA INFORMATION EFFECTIVE 07 NOVEMBER 2019

Location

FAA Identifier: 5TA5
Lat/Long: 29-20-09.8500N 095-06-54.7440W
29-20.164167N 095-06.912400W
29.3360694,-95.1152067
(estimated)
Elevation: 23 ft. / 7 m (estimated)
Variation: 06E (1985)
From city: 3 miles SW of SANTA FE, TX
Time zone: UTC -6 (UTC -5 during Daylight Saving Time)
Zip code: 77517

Airport Operations

Airport use: Private use. Permission required prior to landing
Activation date: 07/1981
Control tower: no
ARTCC: HOUSTON CENTER
FSS: MONTGOMERY COUNTY FLIGHT SERVICE STATION
FOR FP FILING CALL CXO FSS 1-800-833-5602.
Attendance: MON-FRI 1800-0700, ALL SAT-SUN 24 HOURS/DAY
Wind indicator: yes
Segmented circle: no

Airport Communications

WX ASOS at LVJ (13 nm NW): 118.525 (281-992-1853)
WX ASOS at GLS (14 nm E): 119.275 (409-740-9248)

Nearby radio navigation aids

VOR radial/distance  VOR name  Freq  Var
VUHr281/13.6SCHOLES VOR/DME113.0006E
HUBr151/20.9HOBBY VOR/DME117.1005E
MHFr230/23.0TRINITY VOR/DME113.6007E
IAHr157/39.1HUMBLE VORTAC116.6005E

 
NDB name  Hdg/Dist  Freq  Var  ID
GALVESTON262/18.820608EGLS --. .-.. ...

Airport Services

Runway Information

Runway 12/30

Dimensions: 2600 x 150 ft. / 792 x 46 m
Surface: turf
RUNWAY 12  RUNWAY 30
Traffic pattern: rightleft
Obstructions: none30 ft. pline, marked

Airport Ownership and Management from official FAA records

Ownership: Privately-owned
Owner: WILLIAM K. CREASY
13222 VACEK RD
SANTA FE, TX 77510
Phone 409-939-7454
Manager: WILLIAM K. CREASY
13222 VACEK RD
SANTA FE, TX 77510
Phone 409-939-7454

Airport Operational Statistics

Aircraft based on the field: 2
Single engine airplanes: 2
    

Additional Remarks

FOR CD CTC HOUSTON ARTCC AT 281-230-5622.

Instrument Procedures

There are no published instrument procedures at 5TA5.

Some nearby airports with instrument procedures:

KLVJ - Pearland Regional Airport (13 nm NW)
KGLS - Scholes International Airport at Galveston (14 nm E)
KEFD - Ellington Airport (16 nm N)
T41 - La Porte Municipal Airport (20 nm N)
KHOU - William P Hobby Airport (20 nm NW)
 
Loc | Ops | Rwys | IFR | FBO | Links
Com | Nav | Svcs | Stats | Notes
Area around 5TA5 (Creasy Airport)
 
Road maps at: MapQuest Bing Google
 
Aerial photo
No photo
 
Sectional chart

 
Airport distance calculator
Flying to Creasy Airport? Find the distance to fly.

From to 5TA5

Sunrise and sunset
Times for 14-Nov-2019
 Local
(UTC-6)
 Zulu
(UTC)
Morning civil twilight06:2012:20
Sunrise06:4512:45
Sunset17:2523:25
Evening civil twilight17:5023:50

Current date and time
Zulu (UTC)  14-Nov-2019 09:13:06
Local (UTC-6)  14-Nov-2019 03:13:06
 
METAR
KLVJ 
13nm NW 
140853Z AUTO 07008KT 10SM SCT041 OVC049 09/03 A3017 RMK AO2 SLP214 T00940028 58006
KGLS 
14nm E 
140852Z AUTO 04012KT 10SM -RA OVC044 11/08 A3015 RMK AO2 RAB0756 SLP208 P0000 60000 T01060078 58009 $
KEFD 
16nm N 
140750Z 06005KT 10SM OVC050 08/03 A3015
KHOU 
20nm NW 
140853Z 07010KT 10SM OVC042 09/02 A3016 RMK AO2 SLP216 T00890022 58006
KAXH 
21nm NW 
140855Z AUTO 07007KT 10SM BKN031 OVC038 08/04 A3016 RMK AO2 T00820043
KLBX 
23nm SW 
140853Z AUTO 05009KT 10SM OVC044 09/06 A3013 RMK AO2 RAE35 SLP203 P0000 60000 T00940061 58006
TAF
KGLS 
14nm E 
140811Z 1408/1506 06010KT P6SM VCSH SCT050 OVC060 FM141000 05011KT P6SM -RA OVC019 FM141200 06010KT 6SM -SHRA SCT006 OVC015 FM141400 05015KT 6SM -SHRA OVC007 FM142300 01016KT P6SM VCSH SCT013 OVC050 FM150300 36012KT P6SM OVC050
KEFD 
16nm N 
140400Z 1404/1510 VRB06KT 9999 SCT030 BKN050 QNH3010INS BECMG 1405/1406 05009KT 9000 -RA SCT015 BKN025 QNH3010INS BECMG 1412/1413 05012KT 9000 -RA BKN008 QNH3013INS BECMG 1422/1423 03006KT 9999 NSW SCT025 BKN050 QNH3020INS BECMG 1508/1509 01006KT 9999 SKC QNH3025INS TX07/1420Z TN06/1413Z
KHOU 
20nm NW 
140701Z 1407/1506 05007KT P6SM OVC045 FM140900 VRB04KT 6SM -SHRA SCT015 OVC030 FM141200 03007KT 6SM -SHRA OVC015 FM141500 04009KT 6SM -SHRA OVC010 FM141900 02011KT 4SM -SHRA OVC007 FM150100 36010KT P6SM VCSH SCT013 OVC050
NOTAMs
Click for the latest NOTAMs
NOTAMs are issued by the DoD/FAA and will open in a separate window not controlled by AirNav.

 

 
 

Would you like to see your business listed on this page?

 If your business provides an interesting product or service to pilots, flight crews, aircraft, or users of the Creasy Airport, you should consider listing it here.  To start the listing process, click on the button below
 
Add a business
 

Other Pages about Creasy Airport

Update a link
 
Copyright © AirNav, LLC. All rights reserved. Privacy Policy  Contact